sensor_id;sensor_type;location;lat;lon;timestamp;P1;durP1;ratioP1;P2;durP2;ratioP2
76051;SDS011;64751;48.708;9.710;2023-05-16T14:32:46;0.20;;;0.20;;
76051;SDS011;64751;48.708;9.710;2023-05-16T14:35:14;0.80;;;0.30;;
76051;SDS011;64751;48.708;9.710;2023-05-16T14:37:42;0.10;;;0.10;;
76051;SDS011;64751;48.708;9.710;2023-05-16T14:40:10;0.13;;;0.10;;
76051;SDS011;64751;48.708;9.710;2023-05-16T14:42:38;0.10;;;0.10;;
76051;SDS011;64751;48.708;9.710;2023-05-16T14:45:06;0.00;;;0.00;;
76051;SDS011;64751;48.708;9.710;2023-05-16T14:47:34;0.10;;;0.10;;
76051;SDS011;64751;48.708;9.710;2023-05-16T14:50:03;0.08;;;0.08;;
76051;SDS011;64751;48.708;9.710;2023-05-16T14:52:32;0.10;;;0.10;;
76051;SDS011;64751;48.708;9.710;2023-05-16T14:54:59;0.10;;;0.10;;
76051;SDS011;64751;48.708;9.710;2023-05-16T14:57:27;0.10;;;0.10;;
76051;SDS011;64751;48.708;9.710;2023-05-16T14:59:55;0.10;;;0.10;;
76051;SDS011;64751;48.708;9.710;2023-05-16T15:02:23;0.20;;;0.20;;
76051;SDS011;64751;48.708;9.710;2023-05-16T15:04:51;0.03;;;0.03;;
76051;SDS011;64751;48.708;9.710;2023-05-16T15:07:21;0.10;;;0.10;;
76051;SDS011;64751;48.708;9.710;2023-05-16T15:09:48;0.00;;;0.00;;
76051;SDS011;64751;48.708;9.710;2023-05-16T15:12:16;0.10;;;0.10;;
76051;SDS011;64751;48.708;9.710;2023-05-16T15:14:43;0.10;;;0.10;;
76051;SDS011;64751;48.708;9.710;2023-05-16T15:17:11;0.00;;;0.00;;
76051;SDS011;64751;48.708;9.710;2023-05-16T15:19:38;0.00;;;0.00;;
76051;SDS011;64751;48.708;9.710;2023-05-16T15:22:06;0.20;;;0.20;;
76051;SDS011;64751;48.708;9.710;2023-05-16T15:24:37;0.00;;;0.00;;
76051;SDS011;64751;48.708;9.710;2023-05-16T15:27:05;0.00;;;0.00;;
76051;SDS011;64751;48.708;9.710;2023-05-16T15:29:32;0.10;;;0.10;;
76051;SDS011;64751;48.708;9.710;2023-05-16T15:32:02;0.00;;;0.00;;
76051;SDS011;64751;48.708;9.710;2023-05-16T15:34:30;0.00;;;0.00;;
76051;SDS011;64751;48.708;9.710;2023-05-16T15:36:59;0.10;;;0.03;;
76051;SDS011;64751;48.708;9.710;2023-05-16T15:39:27;0.00;;;0.00;;
76051;SDS011;64751;48.708;9.710;2023-05-16T15:41:56;0.05;;;0.05;;
76051;SDS011;64751;48.708;9.710;2023-05-16T15:44:23;0.00;;;0.00;;
76051;SDS011;64751;48.708;9.710;2023-05-16T15:46:51;0.10;;;0.10;;
76051;SDS011;64751;48.708;9.710;2023-05-16T15:49:19;0.00;;;0.00;;
76051;SDS011;64751;48.708;9.710;2023-05-16T15:51:46;0.00;;;0.00;;
76051;SDS011;64751;48.708;9.710;2023-05-16T15:54:14;0.00;;;0.00;;
76051;SDS011;64751;48.708;9.710;2023-05-16T15:56:42;0.00;;;0.00;;
76051;SDS011;64751;48.708;9.710;2023-05-16T15:59:11;0.10;;;0.10;;
76051;SDS011;64751;48.708;9.710;2023-05-16T16:01:38;0.17;;;0.10;;
76051;SDS011;64751;48.708;9.710;2023-05-16T16:04:06;0.10;;;0.10;;
76051;SDS011;64751;48.708;9.710;2023-05-16T16:06:33;0.00;;;0.00;;
76051;SDS011;64751;48.708;9.710;2023-05-16T16:09:01;0.10;;;0.10;;
76051;SDS011;64751;48.708;9.710;2023-05-16T16:11:29;0.10;;;0.10;;
76051;SDS011;64751;48.708;9.710;2023-05-16T16:13:56;0.00;;;0.00;;
76051;SDS011;64751;48.708;9.710;2023-05-16T16:16:25;0.00;;;0.00;;
76051;SDS011;64751;48.708;9.710;2023-05-16T16:18:53;0.05;;;0.05;;
76051;SDS011;64751;48.708;9.710;2023-05-16T16:21:20;0.10;;;0.10;;
76051;SDS011;64751;48.708;9.710;2023-05-16T16:23:49;0.10;;;0.10;;
76051;SDS011;64751;48.708;9.710;2023-05-16T16:26:16;0.00;;;0.00;;
76051;SDS011;64751;48.708;9.710;2023-05-16T16:28:44;0.00;;;0.00;;
76051;SDS011;64751;48.708;9.710;2023-05-16T16:31:11;0.00;;;0.00;;
76051;SDS011;64751;48.708;9.710;2023-05-16T16:33:40;0.00;;;0.00;;
76051;SDS011;64751;48.708;9.710;2023-05-16T16:36:08;0.10;;;0.10;;
76051;SDS011;64751;48.708;9.710;2023-05-16T16:38:36;0.10;;;0.00;;
76051;SDS011;64751;48.708;9.710;2023-05-16T16:41:04;0.00;;;0.00;;
76051;SDS011;64751;48.708;9.710;2023-05-16T16:43:31;0.00;;;0.00;;
76051;SDS011;64751;48.708;9.710;2023-05-16T16:45:59;0.32;;;0.30;;
76051;SDS011;64751;48.708;9.710;2023-05-16T16:48:26;0.10;;;0.10;;
76051;SDS011;64751;48.708;9.710;2023-05-16T16:50:55;0.30;;;0.30;;
76051;SDS011;64751;48.708;9.710;2023-05-16T16:53:23;0.00;;;0.00;;
76051;SDS011;64751;48.708;9.710;2023-05-16T16:55:51;0.00;;;0.00;;
76051;SDS011;64751;48.708;9.710;2023-05-16T16:58:19;0.10;;;0.10;;
76051;SDS011;64751;48.708;9.710;2023-05-16T17:00:46;0.00;;;0.00;;
76051;SDS011;64751;48.708;9.710;2023-05-16T17:03:14;0.20;;;0.10;;
76051;SDS011;64751;48.708;9.710;2023-05-16T17:05:42;0.28;;;0.22;;
76051;SDS011;64751;48.708;9.710;2023-05-16T17:08:11;0.10;;;0.00;;
76051;SDS011;64751;48.708;9.710;2023-05-16T17:10:40;0.00;;;0.00;;
76051;SDS011;64751;48.708;9.710;2023-05-16T17:13:08;0.20;;;0.20;;
76051;SDS011;64751;48.708;9.710;2023-05-16T17:15:39;0.17;;;0.17;;
76051;SDS011;64751;48.708;9.710;2023-05-16T17:18:09;0.10;;;0.10;;
76051;SDS011;64751;48.708;9.710;2023-05-16T17:20:37;0.13;;;0.10;;
76051;SDS011;64751;48.708;9.710;2023-05-16T17:23:05;0.00;;;0.00;;
76051;SDS011;64751;48.708;9.710;2023-05-16T17:25:34;0.20;;;0.20;;
76051;SDS011;64751;48.708;9.710;2023-05-16T17:28:03;0.10;;;0.10;;
76051;SDS011;64751;48.708;9.710;2023-05-16T17:30:31;0.10;;;0.10;;
76051;SDS011;64751;48.708;9.710;2023-05-16T17:32:59;0.08;;;0.08;;
76051;SDS011;64751;48.708;9.710;2023-05-16T17:35:26;0.20;;;0.13;;
76051;SDS011;64751;48.708;9.710;2023-05-16T17:37:54;0.00;;;0.00;;
76051;SDS011;64751;48.708;9.710;2023-05-16T17:40:22;0.10;;;0.10;;
76051;SDS011;64751;48.708;9.710;2023-05-16T17:42:51;0.25;;;0.15;;
76051;SDS011;64751;48.708;9.710;2023-05-16T17:45:18;0.25;;;0.15;;
76051;SDS011;64751;48.708;9.710;2023-05-16T17:47:46;0.40;;;0.40;;
76051;SDS011;64751;48.708;9.710;2023-05-16T17:50:14;0.10;;;0.10;;
76051;SDS011;64751;48.708;9.710;2023-05-16T17:52:41;0.10;;;0.10;;
76051;SDS011;64751;48.708;9.710;2023-05-16T17:55:09;0.20;;;0.20;;
76051;SDS011;64751;48.708;9.710;2023-05-16T17:57:37;0.40;;;0.28;;
76051;SDS011;64751;48.708;9.710;2023-05-16T18:00:07;0.20;;;0.17;;
76051;SDS011;64751;48.708;9.710;2023-05-16T18:05:05;0.40;;;0.22;;
76051;SDS011;64751;48.708;9.710;2023-05-16T18:07:33;0.10;;;0.10;;
76051;SDS011;64751;48.708;9.710;2023-05-16T18:10:00;0.30;;;0.20;;
76051;SDS011;64751;48.708;9.710;2023-05-16T18:12:29;0.10;;;0.03;;
76051;SDS011;64751;48.708;9.710;2023-05-16T18:14:57;0.08;;;0.08;;
76051;SDS011;64751;48.708;9.710;2023-05-16T18:17:26;0.10;;;0.10;;
76051;SDS011;64751;48.708;9.710;2023-05-16T18:19:54;0.10;;;0.10;;
76051;SDS011;64751;48.708;9.710;2023-05-16T18:22:22;0.20;;;0.10;;
76051;SDS011;64751;48.708;9.710;2023-05-16T18:24:49;0.08;;;0.08;;
76051;SDS011;64751;48.708;9.710;2023-05-16T18:27:17;0.10;;;0.10;;
76051;SDS011;64751;48.708;9.710;2023-05-16T18:29:45;0.10;;;0.10;;
76051;SDS011;64751;48.708;9.710;2023-05-16T18:32:13;0.10;;;0.10;;
76051;SDS011;64751;48.708;9.710;2023-05-16T18:34:42;0.10;;;0.10;;
76051;SDS011;64751;48.708;9.710;2023-05-16T18:37:10;0.40;;;0.25;;
76051;SDS011;64751;48.708;9.710;2023-05-16T18:39:38;0.20;;;0.20;;
76051;SDS011;64751;48.708;9.710;2023-05-16T18:42:06;0.00;;;0.00;;
76051;SDS011;64751;48.708;9.710;2023-05-16T18:44:34;0.00;;;0.00;;
76051;SDS011;64751;48.708;9.710;2023-05-16T18:47:02;0.10;;;0.10;;
76051;SDS011;64751;48.708;9.710;2023-05-16T18:49:30;0.08;;;0.08;;
76051;SDS011;64751;48.708;9.710;2023-05-16T18:52:00;0.32;;;0.10;;
76051;SDS011;64751;48.708;9.710;2023-05-16T18:54:27;0.10;;;0.10;;
76051;SDS011;64751;48.708;9.710;2023-05-16T18:56:55;0.15;;;0.15;;
76051;SDS011;64751;48.708;9.710;2023-05-16T18:59:23;0.10;;;0.05;;
76051;SDS011;64751;48.708;9.710;2023-05-16T19:01:50;0.22;;;0.22;;
76051;SDS011;64751;48.708;9.710;2023-05-16T19:04:18;0.30;;;0.20;;
76051;SDS011;64751;48.708;9.710;2023-05-16T19:06:46;0.10;;;0.10;;
76051;SDS011;64751;48.708;9.710;2023-05-16T19:09:15;0.10;;;0.10;;
76051;SDS011;64751;48.708;9.710;2023-05-16T19:11:42;0.28;;;0.17;;
76051;SDS011;64751;48.708;9.710;2023-05-16T19:14:11;0.00;;;0.00;;
76051;SDS011;64751;48.708;9.710;2023-05-16T19:16:39;0.10;;;0.10;;
76051;SDS011;64751;48.708;9.710;2023-05-16T19:19:06;0.20;;;0.10;;
76051;SDS011;64751;48.708;9.710;2023-05-16T19:21:34;0.20;;;0.15;;
76051;SDS011;64751;48.708;9.710;2023-05-16T19:24:03;0.52;;;0.30;;
76051;SDS011;64751;48.708;9.710;2023-05-16T19:26:32;0.10;;;0.10;;
76051;SDS011;64751;48.708;9.710;2023-05-16T19:28:59;0.00;;;0.00;;
76051;SDS011;64751;48.708;9.710;2023-05-16T19:31:27;0.08;;;0.08;;
76051;SDS011;64751;48.708;9.710;2023-05-16T19:33:55;0.13;;;0.13;;
76051;SDS011;64751;48.708;9.710;2023-05-16T19:36:22;0.15;;;0.15;;
76051;SDS011;64751;48.708;9.710;2023-05-16T19:38:50;0.35;;;0.20;;
76051;SDS011;64751;48.708;9.710;2023-05-16T19:41:18;0.00;;;0.00;;
76051;SDS011;64751;48.708;9.710;2023-05-16T19:43:47;0.17;;;0.17;;
76051;SDS011;64751;48.708;9.710;2023-05-16T19:46:15;0.13;;;0.13;;
76051;SDS011;64751;48.708;9.710;2023-05-16T19:48:43;0.20;;;0.20;;
76051;SDS011;64751;48.708;9.710;2023-05-16T19:51:10;0.10;;;0.10;;
76051;SDS011;64751;48.708;9.710;2023-05-16T19:53:38;0.50;;;0.43;;
76051;SDS011;64751;48.708;9.710;2023-05-16T19:56:06;192.27;;;66.95;;
76051;SDS011;64751;48.708;9.710;2023-05-16T19:58:34;198.32;;;79.68;;
76051;SDS011;64751;48.708;9.710;2023-05-16T20:01:03;291.30;;;111.88;;
76051;SDS011;64751;48.708;9.710;2023-05-16T20:03:31;114.15;;;45.95;;
76051;SDS011;64751;48.708;9.710;2023-05-16T20:05:59;131.00;;;50.05;;
76051;SDS011;64751;48.708;9.710;2023-05-16T20:08:26;44.05;;;19.15;;
76051;SDS011;64751;48.708;9.710;2023-05-16T20:10:54;34.15;;;17.63;;
76051;SDS011;64751;48.708;9.710;2023-05-16T20:13:22;131.98;;;53.78;;
76051;SDS011;64751;48.708;9.710;2023-05-16T20:15:51;0.75;;;0.65;;
76051;SDS011;64751;48.708;9.710;2023-05-16T20:18:20;0.52;;;0.35;;
76051;SDS011;64751;48.708;9.710;2023-05-16T20:20:47;43.67;;;18.50;;
76051;SDS011;64751;48.708;9.710;2023-05-16T20:23:15;87.25;;;37.35;;
76051;SDS011;64751;48.708;9.710;2023-05-16T20:25:43;124.40;;;50.75;;
76051;SDS011;64751;48.708;9.710;2023-05-16T20:28:11;50.55;;;17.92;;
76051;SDS011;64751;48.708;9.710;2023-05-16T20:30:39;38.95;;;20.17;;
76051;SDS011;64751;48.708;9.710;2023-05-16T20:33:06;90.07;;;35.10;;
76051;SDS011;64751;48.708;9.710;2023-05-16T20:35:35;34.47;;;16.90;;
76051;SDS011;64751;48.708;9.710;2023-05-16T20:38:03;1.70;;;1.17;;
76051;SDS011;64751;48.708;9.710;2023-05-16T20:40:31;0.60;;;0.40;;
76051;SDS011;64751;48.708;9.710;2023-05-16T20:42:58;0.20;;;0.20;;
76051;SDS011;64751;48.708;9.710;2023-05-16T20:45:26;0.40;;;0.20;;
76051;SDS011;64751;48.708;9.710;2023-05-16T20:47:55;0.20;;;0.20;;
76051;SDS011;64751;48.708;9.710;2023-05-16T20:50:23;0.20;;;0.20;;
76051;SDS011;64751;48.708;9.710;2023-05-16T20:52:52;1.08;;;0.30;;
76051;SDS011;64751;48.708;9.710;2023-05-16T20:55:20;0.13;;;0.10;;
76051;SDS011;64751;48.708;9.710;2023-05-16T20:57:48;0.17;;;0.13;;
76051;SDS011;64751;48.708;9.710;2023-05-16T21:00:16;0.00;;;0.00;;
76051;SDS011;64751;48.708;9.710;2023-05-16T21:02:43;0.20;;;0.20;;
76051;SDS011;64751;48.708;9.710;2023-05-16T21:05:11;0.30;;;0.30;;
76051;SDS011;64751;48.708;9.710;2023-05-16T21:07:39;0.17;;;0.17;;
76051;SDS011;64751;48.708;9.710;2023-05-16T21:10:08;0.10;;;0.10;;
76051;SDS011;64751;48.708;9.710;2023-05-16T21:12:37;0.15;;;0.10;;
76051;SDS011;64751;48.708;9.710;2023-05-16T21:15:06;0.43;;;0.20;;
76051;SDS011;64751;48.708;9.710;2023-05-16T21:17:34;0.32;;;0.10;;
76051;SDS011;64751;48.708;9.710;2023-05-16T21:20:04;0.10;;;0.10;;
76051;SDS011;64751;48.708;9.710;2023-05-16T21:22:33;0.08;;;0.08;;
76051;SDS011;64751;48.708;9.710;2023-05-16T21:25:01;0.17;;;0.10;;
76051;SDS011;64751;48.708;9.710;2023-05-16T21:27:30;0.20;;;0.10;;
76051;SDS011;64751;48.708;9.710;2023-05-16T21:29:57;0.10;;;0.08;;
76051;SDS011;64751;48.708;9.710;2023-05-16T21:32:25;0.00;;;0.00;;
76051;SDS011;64751;48.708;9.710;2023-05-16T21:34:56;0.10;;;0.10;;
76051;SDS011;64751;48.708;9.710;2023-05-16T21:37:25;0.00;;;0.00;;
76051;SDS011;64751;48.708;9.710;2023-05-16T21:39:53;0.38;;;0.38;;
76051;SDS011;64751;48.708;9.710;2023-05-16T21:42:20;0.10;;;0.10;;
76051;SDS011;64751;48.708;9.710;2023-05-16T21:44:49;0.10;;;0.10;;
76051;SDS011;64751;48.708;9.710;2023-05-16T21:47:17;0.35;;;0.15;;
76051;SDS011;64751;48.708;9.710;2023-05-16T21:49:44;0.00;;;0.00;;
76051;SDS011;64751;48.708;9.710;2023-05-16T21:52:12;0.08;;;0.05;;
76051;SDS011;64751;48.708;9.710;2023-05-16T21:54:40;0.13;;;0.10;;
76051;SDS011;64751;48.708;9.710;2023-05-16T21:57:07;0.20;;;0.20;;
76051;SDS011;64751;48.708;9.710;2023-05-16T21:59:35;0.28;;;0.17;;
